createdAt,value
2022-11-20T00:00:05.215Z,0.18
2022-11-20T00:02:06.682Z,0.17
2022-11-20T00:04:09.857Z,0.19
2022-11-20T00:06:17.251Z,0.19
2022-11-20T00:08:18.674Z,0.20
2022-11-20T00:10:20.123Z,0.20
2022-11-20T00:12:21.569Z,0.24
2022-11-20T00:14:23.034Z,0.26
2022-11-20T00:16:26.348Z,0.28
2022-11-20T00:18:28.349Z,0.30
2022-11-20T00:20:29.846Z,0.32
2022-11-20T00:22:31.277Z,0.36
2022-11-20T00:24:32.702Z,0.35
2022-11-20T00:26:34.522Z,0.34
2022-11-20T00:28:35.982Z,0.32
2022-11-20T00:30:37.407Z,0.34
2022-11-20T00:32:38.854Z,0.31
2022-11-20T00:34:40.288Z,0.30
2022-11-20T00:36:41.737Z,0.31
2022-11-20T00:38:43.940Z,0.31
2022-11-20T00:40:45.372Z,0.34
2022-11-20T00:42:46.846Z,0.37
2022-11-20T00:44:48.297Z,0.37
2022-11-20T00:46:49.737Z,0.37
2022-11-20T00:48:51.227Z,0.39
2022-11-20T00:50:53.288Z,0.41
2022-11-20T00:52:54.712Z,0.43
2022-11-20T00:54:56.139Z,0.42
2022-11-20T00:56:57.698Z,0.44
2022-11-20T00:59:01.051Z,0.46
2022-11-20T01:01:03.374Z,0.47
2022-11-20T01:03:04.855Z,0.47
2022-11-20T01:05:06.527Z,0.49
2022-11-20T01:07:08.000Z,0.51
2022-11-20T01:09:13.388Z,0.53
2022-11-20T01:11:24.559Z,0.54
2022-11-20T01:13:38.088Z,0.52
2022-11-20T01:15:39.551Z,0.51
2022-11-20T01:17:40.974Z,0.51
2022-11-20T01:19:42.418Z,0.52
2022-11-20T01:21:45.212Z,0.51
2022-11-20T01:23:48.027Z,0.51
2022-11-20T01:25:49.464Z,0.51
2022-11-20T01:27:50.935Z,0.55
2022-11-20T01:29:55.725Z,0.55
2022-11-20T01:31:59.767Z,0.55
2022-11-20T01:34:03.572Z,0.56
2022-11-20T01:36:06.864Z,0.57
2022-11-20T01:38:08.319Z,0.59
2022-11-20T01:40:10.521Z,0.58
2022-11-20T01:42:30.232Z,0.58
2022-11-20T01:44:55.219Z,0.59
2022-11-20T01:47:04.934Z,0.58
2022-11-20T01:49:21.179Z,0.58
2022-11-20T01:51:28.693Z,0.60
2022-11-20T01:53:34.401Z,0.60
2022-11-20T01:55:40.818Z,0.60
2022-11-20T01:57:45.108Z,0.60
2022-11-20T01:59:58.000Z,0.61
2022-11-20T02:01:59.548Z,0.60
2022-11-20T02:04:02.311Z,0.61
2022-11-20T02:06:15.530Z,0.60
2022-11-20T02:08:18.378Z,0.59
2022-11-20T02:10:19.841Z,0.58
2022-11-20T02:12:40.184Z,0.58
2022-11-20T02:14:41.679Z,0.58
2022-11-20T02:16:48.683Z,0.59
2022-11-20T02:18:51.339Z,0.61
2022-11-20T02:21:04.586Z,0.64
2022-11-20T02:23:13.078Z,0.62
2022-11-20T02:25:15.568Z,0.61
2022-11-20T02:27:17.969Z,0.60
2022-11-20T02:29:43.131Z,0.61
2022-11-20T02:31:44.739Z,0.60
2022-11-20T02:33:46.448Z,0.58
2022-11-20T02:35:48.259Z,0.58
2022-11-20T02:37:52.200Z,0.58
2022-11-20T02:39:53.649Z,0.60
2022-11-20T02:41:56.745Z,0.62
2022-11-20T02:43:58.214Z,0.60
2022-11-20T02:45:59.835Z,0.61
2022-11-20T02:48:01.502Z,0.61
2022-11-20T02:50:04.014Z,0.62
2022-11-20T02:52:05.529Z,0.63
2022-11-20T02:54:07.039Z,0.64
2022-11-20T02:56:08.486Z,0.63
2022-11-20T02:58:10.026Z,0.65
2022-11-20T03:00:12.145Z,0.68
2022-11-20T03:02:13.582Z,0.69
2022-11-20T03:04:15.179Z,0.68
2022-11-20T03:06:17.867Z,0.68
2022-11-20T03:08:19.318Z,0.69
2022-11-20T03:10:20.809Z,0.71
2022-11-20T03:12:22.424Z,0.73
2022-11-20T03:14:23.887Z,0.75
2022-11-20T03:16:25.333Z,0.77
2022-11-20T03:18:29.902Z,0.77
2022-11-20T03:20:32.993Z,0.76
2022-11-20T03:22:34.457Z,0.79
2022-11-20T03:24:36.081Z,0.81
2022-11-20T03:26:37.516Z,0.83
2022-11-20T03:28:39.258Z,0.86
2022-11-20T03:30:40.672Z,0.86
2022-11-20T03:32:42.566Z,0.85
2022-11-20T03:34:44.027Z,0.83
2022-11-20T03:36:45.478Z,0.83
2022-11-20T03:38:48.021Z,0.83
2022-11-20T03:40:49.792Z,0.84
2022-11-20T03:42:51.257Z,0.87
2022-11-20T03:44:52.691Z,0.92
2022-11-20T03:46:54.142Z,0.93
2022-11-20T03:48:55.823Z,0.93
2022-11-20T03:51:15.806Z,0.92
2022-11-20T03:53:17.610Z,0.93
2022-11-20T03:55:19.079Z,0.93
2022-11-20T03:57:20.570Z,0.93
2022-11-20T03:59:22.195Z,0.92
2022-11-20T04:01:26.623Z,0.95
2022-11-20T04:03:28.173Z,0.97
2022-11-20T04:05:29.632Z,0.99
2022-11-20T04:07:31.138Z,1.01
2022-11-20T04:09:32.578Z,1.01
2022-11-20T04:11:36.355Z,1.02
2022-11-20T04:13:38.076Z,1.03
2022-11-20T04:15:39.528Z,1.05
2022-11-20T04:17:41.066Z,1.05
2022-11-20T04:19:42.577Z,1.02
2022-11-20T04:21:45.354Z,1.01
2022-11-20T04:23:46.827Z,0.97
2022-11-20T04:25:48.246Z,0.93
2022-11-20T04:27:49.674Z,0.94
2022-11-20T04:29:51.116Z,0.93
2022-11-20T04:31:52.657Z,0.94
2022-11-20T04:33:54.671Z,0.97
2022-11-20T04:35:56.239Z,0.97
2022-11-20T04:37:57.664Z,0.96
2022-11-20T04:39:59.134Z,0.94
2022-11-20T04:42:19.327Z,0.92
2022-11-20T04:44:20.901Z,0.91
2022-11-20T04:46:22.322Z,0.89
2022-11-20T04:48:25.170Z,0.89
2022-11-20T04:50:26.725Z,0.89
2022-11-20T04:52:28.170Z,0.85
2022-11-20T04:54:29.647Z,0.84
2022-11-20T04:56:31.201Z,0.84
2022-11-20T04:58:33.305Z,0.85
2022-11-20T05:00:35.035Z,0.84
2022-11-20T05:02:36.571Z,0.84
2022-11-20T05:04:38.130Z,0.86
2022-11-20T05:06:39.553Z,0.87
2022-11-20T05:08:42.022Z,0.85
2022-11-20T05:10:43.455Z,0.84
2022-11-20T05:12:44.868Z,0.87
2022-11-20T05:14:46.347Z,0.87
2022-11-20T05:16:48.019Z,0.88
2022-11-20T05:18:50.387Z,0.87
2022-11-20T05:20:56.230Z,0.88
2022-11-20T05:22:58.531Z,0.86
2022-11-20T05:25:00.002Z,0.85
2022-11-20T05:27:01.483Z,0.85
2022-11-20T05:29:03.033Z,0.86
2022-11-20T05:31:06.920Z,0.89
2022-11-20T05:33:08.990Z,0.90
2022-11-20T05:35:10.461Z,0.90
2022-11-20T05:37:11.947Z,0.90
2022-11-20T05:39:13.417Z,0.88
2022-11-20T05:41:17.655Z,0.89
2022-11-20T05:43:19.307Z,0.90
2022-11-20T05:45:20.819Z,0.92
2022-11-20T05:47:23.396Z,0.93
2022-11-20T05:49:24.909Z,0.96
2022-11-20T05:51:27.625Z,0.96
2022-11-20T05:53:29.512Z,0.97
2022-11-20T05:55:30.971Z,0.98
2022-11-20T05:57:32.801Z,1.01
2022-11-20T05:59:34.307Z,1.00
2022-11-20T06:01:37.083Z,0.99
2022-11-20T06:03:39.974Z,0.99
2022-11-20T06:05:41.416Z,0.97
2022-11-20T06:07:42.936Z,0.95
2022-11-20T06:09:44.418Z,0.96
2022-11-20T06:11:45.843Z,0.96
2022-11-20T06:13:47.978Z,0.97
2022-11-20T06:15:54.127Z,0.97
2022-11-20T06:17:56.151Z,0.98
2022-11-20T06:19:57.788Z,1.00
2022-11-20T06:21:59.346Z,1.00
2022-11-20T06:24:00.875Z,1.02
2022-11-20T06:26:07.939Z,1.02
2022-11-20T06:28:10.102Z,1.02
2022-11-20T06:30:12.219Z,0.98
2022-11-20T06:32:13.645Z,0.98
2022-11-20T06:34:15.267Z,1.00
2022-11-20T06:36:19.372Z,1.01
2022-11-20T06:38:20.822Z,1.01
2022-11-20T06:40:22.285Z,1.02
2022-11-20T06:42:23.801Z,1.05
2022-11-20T06:44:25.563Z,0.99
2022-11-20T06:46:27.066Z,0.94
2022-11-20T06:48:29.618Z,0.92
2022-11-20T06:50:31.193Z,0.92
2022-11-20T06:52:32.612Z,0.92
2022-11-20T06:54:34.069Z,0.93
2022-11-20T06:56:35.516Z,0.92
2022-11-20T06:58:37.912Z,0.90
2022-11-20T07:00:39.418Z,0.88
2022-11-20T07:02:40.917Z,0.90
2022-11-20T07:04:42.370Z,0.91
2022-11-20T07:06:43.797Z,0.92
2022-11-20T07:08:45.313Z,0.91
2022-11-20T07:10:46.763Z,0.87
2022-11-20T07:12:52.531Z,0.82
2022-11-20T07:14:53.997Z,0.80
2022-11-20T07:16:56.008Z,0.77
2022-11-20T07:18:57.603Z,0.76
2022-11-20T07:21:03.502Z,0.81
2022-11-20T07:23:05.003Z,0.83
2022-11-20T07:25:07.544Z,0.81
2022-11-20T07:27:09.093Z,0.78
2022-11-20T07:29:10.690Z,0.75
2022-11-20T07:31:18.840Z,0.66
2022-11-20T07:33:21.263Z,0.64
2022-11-20T07:35:23.987Z,0.62
2022-11-20T07:37:25.427Z,0.61
2022-11-20T07:39:26.864Z,0.60
2022-11-20T07:41:28.675Z,0.59
2022-11-20T07:43:30.558Z,0.61
2022-11-20T07:45:32.088Z,0.61
2022-11-20T07:47:37.640Z,0.65
2022-11-20T07:49:39.074Z,0.67
2022-11-20T07:51:40.494Z,0.67
2022-11-20T07:53:41.943Z,0.67
2022-11-20T07:55:43.361Z,0.67
2022-11-20T07:57:45.045Z,0.69
2022-11-20T07:59:47.086Z,0.67
2022-11-20T08:01:48.554Z,0.67
2022-11-20T08:03:50.026Z,0.66
2022-11-20T08:05:51.545Z,0.69
2022-11-20T08:07:53.030Z,0.71
2022-11-20T08:09:54.477Z,0.71
2022-11-20T08:12:14.975Z,0.76
2022-11-20T08:14:16.847Z,0.78
2022-11-20T08:16:18.310Z,0.82
2022-11-20T08:18:35.406Z,0.84
2022-11-20T08:20:36.922Z,0.84
2022-11-20T08:22:38.380Z,0.85
2022-11-20T08:24:39.897Z,0.88
2022-11-20T08:26:42.067Z,0.92
2022-11-20T08:28:43.702Z,0.94
2022-11-20T08:30:46.857Z,0.94
2022-11-20T08:32:48.290Z,0.95
2022-11-20T08:34:49.721Z,0.97
2022-11-20T08:36:51.199Z,0.97
2022-11-20T08:38:55.182Z,0.98
2022-11-20T08:41:19.242Z,1.00
2022-11-20T08:43:20.666Z,1.01
2022-11-20T08:45:22.147Z,1.01
2022-11-20T08:47:23.558Z,1.04
2022-11-20T08:49:25.103Z,1.03
2022-11-20T08:51:26.602Z,1.06
2022-11-20T08:53:28.756Z,1.07
2022-11-20T08:55:30.184Z,1.06
2022-11-20T08:57:36.406Z,1.07
2022-11-20T09:00:04.273Z,1.08
2022-11-20T09:01:59.539Z,1.09
2022-11-20T09:04:01.019Z,1.10
2022-11-20T09:06:04.456Z,1.11
2022-11-20T09:08:06.352Z,1.16
2022-11-20T09:10:25.068Z,1.20
2022-11-20T09:12:26.758Z,1.26
2022-11-20T09:14:30.085Z,1.30
2022-11-20T09:16:31.561Z,1.34
2022-11-20T09:18:33.925Z,1.35
2022-11-20T09:20:35.415Z,1.37
2022-11-20T09:22:40.935Z,1.37
2022-11-20T09:24:43.695Z,1.39
2022-11-20T09:26:45.737Z,1.40
2022-11-20T09:28:47.244Z,1.38
2022-11-20T09:30:48.969Z,1.36
2022-11-20T09:32:50.443Z,1.37
2022-11-20T09:34:51.943Z,1.37
2022-11-20T09:36:53.492Z,1.37
2022-11-20T09:38:55.082Z,1.37
2022-11-20T09:41:05.894Z,1.34
2022-11-20T09:43:34.698Z,1.34
2022-11-20T09:45:46.881Z,1.36
2022-11-20T09:48:10.158Z,1.33
2022-11-20T09:50:37.509Z,1.29
2022-11-20T09:52:50.811Z,1.25
2022-11-20T09:54:54.248Z,1.27
2022-11-20T09:57:06.264Z,1.29
2022-11-20T09:59:15.339Z,1.32
2022-11-20T10:01:19.639Z,1.36
2022-11-20T10:03:37.178Z,1.34
2022-11-20T10:05:45.095Z,1.28
2022-11-20T10:07:56.567Z,1.26
2022-11-20T10:09:58.298Z,1.26
2022-11-20T10:12:18.235Z,1.24
2022-11-20T10:14:41.489Z,1.19
2022-11-20T10:16:57.438Z,1.17
2022-11-20T10:19:04.745Z,1.14
2022-11-20T10:21:12.408Z,1.16
2022-11-20T10:23:25.379Z,1.17
2022-11-20T10:25:56.301Z,1.21
2022-11-20T10:28:13.813Z,1.22
2022-11-20T10:30:17.980Z,1.27
2022-11-20T10:32:23.616Z,1.30
2022-11-20T10:34:34.823Z,1.32
2022-11-20T10:36:43.991Z,1.37
2022-11-20T10:38:58.258Z,1.41
2022-11-20T10:41:22.418Z,1.43
2022-11-20T10:43:34.362Z,1.44
2022-11-20T10:45:41.809Z,1.42
2022-11-20T10:47:43.291Z,1.45
2022-11-20T10:49:49.702Z,1.47
2022-11-20T10:52:18.554Z,1.48
2022-11-20T10:54:37.676Z,1.50
2022-11-20T10:56:46.859Z,1.50
2022-11-20T10:59:06.237Z,1.50
2022-11-20T11:01:20.143Z,1.52
2022-11-20T11:03:31.771Z,1.53
2022-11-20T11:05:41.007Z,1.55
2022-11-20T11:07:43.169Z,1.58
2022-11-20T11:09:50.217Z,1.60
2022-11-20T11:11:52.445Z,1.61
2022-11-20T11:13:53.913Z,1.60
2022-11-20T11:15:56.452Z,1.61
2022-11-20T11:17:58.294Z,1.57
2022-11-20T11:19:59.675Z,1.59
2022-11-20T11:22:01.935Z,1.58
2022-11-20T11:24:27.043Z,1.62
2022-11-20T11:26:26.959Z,1.65
2022-11-20T11:28:29.589Z,1.65
2022-11-20T11:30:42.636Z,1.66
2022-11-20T11:32:44.383Z,1.68
2022-11-20T11:34:46.002Z,1.70
2022-11-20T11:36:57.077Z,1.71
2022-11-20T11:38:58.611Z,1.72
2022-11-20T11:41:00.176Z,1.71
2022-11-20T11:43:05.969Z,1.71
2022-11-20T11:45:07.849Z,1.68
2022-11-20T11:47:32.974Z,1.66
2022-11-20T11:49:34.457Z,1.68
2022-11-20T11:51:48.619Z,1.69
2022-11-20T11:53:51.277Z,1.68
2022-11-20T11:55:59.500Z,1.67
2022-11-20T11:58:20.668Z,1.65
2022-11-20T12:00:23.223Z,1.64
2022-11-20T12:02:33.938Z,1.66
2022-11-20T12:04:56.088Z,1.62
2022-11-20T12:07:44.203Z,1.57
2022-11-20T12:09:42.534Z,1.47
2022-11-20T12:12:17.513Z,1.38
2022-11-20T12:14:27.682Z,1.29
2022-11-20T12:16:34.821Z,1.23
2022-11-20T12:18:36.282Z,1.15
2022-11-20T12:20:51.387Z,1.09
2022-11-20T12:23:01.503Z,1.04
2022-11-20T12:25:07.957Z,1.01
2022-11-20T12:27:24.499Z,0.94
2022-11-20T12:29:49.029Z,0.91
2022-11-20T12:32:02.221Z,0.89
2022-11-20T12:34:19.315Z,0.89
2022-11-20T12:36:31.078Z,0.91
2022-11-20T12:38:41.647Z,0.89
2022-11-20T12:41:04.832Z,0.85
2022-11-20T12:43:46.908Z,0.80
2022-11-20T12:46:23.289Z,0.83
2022-11-20T12:48:44.991Z,0.92
2022-11-20T12:51:16.109Z,1.02
2022-11-20T12:53:35.809Z,0.99
2022-11-20T12:55:53.626Z,0.98
2022-11-20T12:58:02.786Z,1.04
2022-11-20T13:00:14.799Z,1.09
2022-11-20T13:02:16.192Z,1.14
2022-11-20T13:04:47.787Z,1.23
2022-11-20T13:06:50.051Z,1.26
2022-11-20T13:08:59.974Z,1.30
2022-11-20T13:11:17.060Z,1.27
2022-11-20T13:13:43.308Z,1.27
2022-11-20T13:15:53.873Z,1.30
2022-11-20T13:17:57.708Z,1.33
2022-11-20T13:19:59.748Z,1.31
2022-11-20T13:22:01.591Z,1.32
2022-11-20T13:24:07.211Z,1.35
2022-11-20T13:26:19.797Z,1.38
2022-11-20T13:28:21.188Z,1.41
2022-11-20T13:30:24.786Z,1.43
2022-11-20T13:32:28.751Z,1.44
2022-11-20T13:34:31.070Z,1.37
2022-11-20T13:36:33.465Z,1.30
2022-11-20T13:38:47.579Z,1.27
2022-11-20T13:41:21.988Z,1.24
2022-11-20T13:43:30.026Z,1.21
2022-11-20T13:45:33.422Z,1.17
2022-11-20T13:47:36.862Z,1.20
2022-11-20T13:49:49.154Z,1.24
2022-11-20T13:51:54.167Z,1.26
2022-11-20T13:54:07.666Z,1.26
2022-11-20T13:56:24.094Z,1.28
2022-11-20T13:58:49.022Z,1.28
2022-11-20T14:01:02.355Z,1.21
2022-11-20T14:03:06.515Z,1.18
2022-11-20T14:05:20.923Z,1.15
2022-11-20T14:07:26.752Z,1.18
2022-11-20T14:09:35.180Z,1.24
2022-11-20T14:11:36.651Z,1.29
2022-11-20T14:13:38.081Z,1.34
2022-11-20T14:15:44.807Z,1.37
2022-11-20T14:17:46.738Z,1.35
2022-11-20T14:19:51.365Z,1.31
2022-11-20T14:22:07.268Z,1.24
2022-11-20T14:24:12.838Z,1.14
2022-11-20T14:26:21.243Z,1.08
2022-11-20T14:28:28.429Z,1.05
2022-11-20T14:30:41.234Z,1.07
2022-11-20T14:32:44.249Z,1.06
2022-11-20T14:34:48.845Z,1.08
2022-11-20T14:36:55.002Z,1.08
2022-11-20T14:38:56.531Z,1.08
2022-11-20T14:41:20.424Z,1.10
2022-11-20T14:43:27.090Z,1.10
2022-11-20T14:45:29.177Z,1.08
2022-11-20T14:47:32.079Z,1.07
2022-11-20T14:49:34.173Z,1.05
2022-11-20T14:51:42.273Z,1.05
2022-11-20T14:53:43.739Z,1.02
2022-11-20T14:55:45.203Z,0.96
2022-11-20T14:57:56.895Z,0.94
2022-11-20T15:00:28.156Z,0.91
2022-11-20T15:02:31.236Z,0.91
2022-11-20T15:04:32.854Z,0.93
2022-11-20T15:06:34.629Z,0.94
2022-11-20T15:08:36.272Z,0.97
2022-11-20T15:10:39.186Z,0.96
2022-11-20T15:12:52.907Z,0.93
2022-11-20T15:14:54.397Z,0.89
2022-11-20T15:16:56.212Z,0.85
2022-11-20T15:18:57.746Z,0.83
2022-11-20T15:21:03.419Z,0.84
2022-11-20T15:23:12.465Z,0.82
2022-11-20T15:25:15.817Z,0.77
2022-11-20T15:27:17.331Z,0.72
2022-11-20T15:29:19.853Z,0.68
2022-11-20T15:31:24.131Z,0.64
2022-11-20T15:33:25.772Z,0.57
2022-11-20T15:35:27.267Z,0.51
2022-11-20T15:37:30.082Z,0.51
2022-11-20T15:39:31.656Z,0.49
2022-11-20T15:41:33.107Z,0.46
2022-11-20T15:43:34.562Z,0.45
2022-11-20T15:45:42.768Z,0.46
2022-11-20T15:47:44.275Z,0.46
2022-11-20T15:49:45.717Z,0.45
2022-11-20T15:51:50.902Z,0.46
2022-11-20T15:53:52.470Z,0.45
2022-11-20T15:55:54.283Z,0.44
2022-11-20T15:57:55.728Z,0.40
2022-11-20T15:59:57.176Z,0.37
2022-11-20T16:01:58.675Z,0.36
2022-11-20T16:04:01.112Z,0.32
2022-11-20T16:06:02.615Z,0.24
2022-11-20T16:08:08.532Z,0.10
2022-11-20T16:10:11.568Z,-0.01
2022-11-20T16:12:35.839Z,-0.06
2022-11-20T16:14:55.901Z,-0.02
2022-11-20T16:16:57.362Z,0.01
2022-11-20T16:18:59.184Z,0.06
2022-11-20T16:21:00.703Z,0.04
2022-11-20T16:23:02.213Z,0.04
2022-11-20T16:25:03.864Z,0.04
2022-11-20T16:27:05.371Z,0.06
2022-11-20T16:29:07.569Z,0.08
2022-11-20T16:31:11.614Z,0.05
2022-11-20T16:33:16.313Z,0.03
2022-11-20T16:35:17.922Z,0.02
2022-11-20T16:37:19.350Z,-0.02
2022-11-20T16:39:23.908Z,-0.06
2022-11-20T16:41:26.745Z,-0.08
2022-11-20T16:43:28.361Z,-0.07
2022-11-20T16:45:33.708Z,-0.08
2022-11-20T16:47:35.788Z,-0.08
2022-11-20T16:49:37.240Z,-0.09
2022-11-20T16:51:38.710Z,-0.13
2022-11-20T16:53:40.665Z,-0.15
2022-11-20T16:55:42.124Z,-0.16
2022-11-20T16:57:43.581Z,-0.15
2022-11-20T16:59:45.023Z,-0.17
2022-11-20T17:01:46.663Z,-0.17
2022-11-20T17:04:01.395Z,-0.18
2022-11-20T17:06:02.905Z,-0.23
2022-11-20T17:08:04.705Z,-0.22
2022-11-20T17:10:06.569Z,-0.22
2022-11-20T17:12:08.098Z,-0.23
2022-11-20T17:14:11.691Z,-0.24
2022-11-20T17:16:21.758Z,-0.28
2022-11-20T17:18:23.469Z,-0.30
2022-11-20T17:20:25.039Z,-0.32
2022-11-20T17:22:26.619Z,-0.31
2022-11-20T17:24:31.826Z,-0.34
2022-11-20T17:26:34.800Z,-0.37
2022-11-20T17:28:37.788Z,-0.39
2022-11-20T17:30:39.239Z,-0.42
2022-11-20T17:32:45.578Z,-0.45
2022-11-20T17:34:47.007Z,-0.48
2022-11-20T17:36:48.563Z,-0.49
2022-11-20T17:38:50.014Z,-0.49
2022-11-20T17:40:51.544Z,-0.53
2022-11-20T17:42:52.991Z,-0.58
2022-11-20T17:44:54.465Z,-0.61
2022-11-20T17:46:55.913Z,-0.61
2022-11-20T17:48:57.448Z,-0.61
2022-11-20T17:51:03.987Z,-0.62
2022-11-20T17:53:05.546Z,-0.61
2022-11-20T17:55:07.533Z,-0.60
2022-11-20T17:57:27.953Z,-0.57
2022-11-20T17:59:29.384Z,-0.62
2022-11-20T18:01:30.877Z,-0.62
2022-11-20T18:03:32.372Z,-0.62
2022-11-20T18:05:33.825Z,-0.62
2022-11-20T18:07:40.266Z,-0.62
2022-11-20T18:09:43.172Z,-0.64
2022-11-20T18:11:45.439Z,-0.68
2022-11-20T18:14:07.724Z,-0.72
2022-11-20T18:16:09.265Z,-0.79
2022-11-20T18:18:10.699Z,-0.79
2022-11-20T18:20:30.317Z,-0.76
2022-11-20T18:22:32.680Z,-0.74
2022-11-20T18:24:36.637Z,-0.73
2022-11-20T18:26:43.912Z,-0.72
2022-11-20T18:28:46.018Z,-0.71
2022-11-20T18:30:47.590Z,-0.73
2022-11-20T18:32:50.124Z,-0.74
2022-11-20T18:34:51.591Z,-0.73
2022-11-20T18:36:53.146Z,-0.73
2022-11-20T18:38:56.948Z,-0.72
2022-11-20T18:41:03.414Z,-0.73
2022-11-20T18:43:24.666Z,-0.76
2022-11-20T18:45:26.256Z,-0.78
2022-11-20T18:47:30.774Z,-0.81
2022-11-20T18:49:32.275Z,-0.87
2022-11-20T18:51:33.789Z,-0.90
2022-11-20T18:53:36.095Z,-0.92
2022-11-20T18:55:37.585Z,-0.90
2022-11-20T18:57:39.066Z,-0.89
2022-11-20T18:59:42.650Z,-0.88
2022-11-20T19:01:44.354Z,-0.87
2022-11-20T19:03:46.810Z,-0.86
2022-11-20T19:05:48.276Z,-0.85
2022-11-20T19:07:49.799Z,-0.86
2022-11-20T19:09:53.093Z,-0.86
2022-11-20T19:11:54.851Z,-0.86
2022-11-20T19:13:56.544Z,-0.87
2022-11-20T19:16:05.810Z,-0.85
2022-11-20T19:18:07.309Z,-0.88
2022-11-20T19:20:09.122Z,-0.87
2022-11-20T19:22:10.669Z,-0.87
2022-11-20T19:24:12.474Z,-0.86
2022-11-20T19:26:14.070Z,-0.85
2022-11-20T19:28:15.593Z,-0.85
2022-11-20T19:30:17.357Z,-0.87
2022-11-20T19:32:18.927Z,-0.91
2022-11-20T19:34:20.502Z,-0.93
2022-11-20T19:36:25.430Z,-0.96
2022-11-20T19:38:26.871Z,-0.96
2022-11-20T19:40:28.535Z,-0.94
2022-11-20T19:42:30.858Z,-0.94
2022-11-20T19:44:33.040Z,-0.97
2022-11-20T19:46:36.253Z,-0.99
2022-11-20T19:48:38.293Z,-0.98
2022-11-20T19:50:39.754Z,-0.97
2022-11-20T19:52:41.879Z,-0.95
2022-11-20T19:54:43.333Z,-0.91
2022-11-20T19:56:45.552Z,-0.89
2022-11-20T19:58:47.221Z,-0.87
2022-11-20T20:00:48.674Z,-0.86
2022-11-20T20:02:50.115Z,-0.85
2022-11-20T20:04:51.559Z,-0.84
2022-11-20T20:06:53.027Z,-0.82
2022-11-20T20:09:06.489Z,-0.81
2022-11-20T20:11:15.253Z,-0.81
2022-11-20T20:13:16.676Z,-0.80
2022-11-20T20:15:18.119Z,-0.81
2022-11-20T20:17:19.573Z,-0.81
2022-11-20T20:19:21.046Z,-0.82
2022-11-20T20:21:22.639Z,-0.83
2022-11-20T20:23:24.061Z,-0.82
2022-11-20T20:25:25.480Z,-0.84
2022-11-20T20:27:26.921Z,-0.85
2022-11-20T20:29:28.403Z,-0.83
2022-11-20T20:31:32.431Z,-0.80
2022-11-20T20:33:33.904Z,-0.80
2022-11-20T20:35:39.680Z,-0.78
2022-11-20T20:37:41.199Z,-0.78
2022-11-20T20:39:42.636Z,-0.77
2022-11-20T20:41:44.102Z,-0.77
2022-11-20T20:44:04.310Z,-0.77
2022-11-20T20:46:07.878Z,-0.78
2022-11-20T20:48:09.344Z,-0.78
2022-11-20T20:50:11.907Z,-0.79
2022-11-20T20:52:13.604Z,-0.79
2022-11-20T20:54:15.075Z,-0.79
2022-11-20T20:56:17.702Z,-0.77
2022-11-20T20:58:19.160Z,-0.76
2022-11-20T21:00:22.193Z,-0.76
2022-11-20T21:02:24.141Z,-0.77
2022-11-20T21:04:25.666Z,-0.76
2022-11-20T21:06:27.289Z,-0.76
2022-11-20T21:08:29.310Z,-0.76
2022-11-20T21:10:31.296Z,-0.75
2022-11-20T21:12:32.753Z,-0.76
2022-11-20T21:14:34.726Z,-0.74
2022-11-20T21:16:41.196Z,-0.73
2022-11-20T21:18:42.749Z,-0.74
2022-11-20T21:21:04.550Z,-0.75
2022-11-20T21:23:10.471Z,-0.76
2022-11-20T21:25:11.953Z,-0.75
2022-11-20T21:27:13.393Z,-0.75
2022-11-20T21:29:15.534Z,-0.75
2022-11-20T21:31:21.889Z,-0.75
2022-11-20T21:33:23.316Z,-0.76
2022-11-20T21:35:24.811Z,-0.74
2022-11-20T21:37:26.252Z,-0.74
2022-11-20T21:39:27.761Z,-0.73
2022-11-20T21:41:31.070Z,-0.74
2022-11-20T21:43:32.941Z,-0.74
2022-11-20T21:45:34.377Z,-0.73
2022-11-20T21:47:35.866Z,-0.72
2022-11-20T21:49:39.110Z,-0.72
2022-11-20T21:51:40.613Z,-0.71
2022-11-20T21:53:43.240Z,-0.71
2022-11-20T21:55:53.226Z,-0.69
2022-11-20T21:57:54.703Z,-0.71
2022-11-20T21:59:56.158Z,-0.70
2022-11-20T22:01:57.686Z,-0.69
2022-11-20T22:04:02.037Z,-0.68
2022-11-20T22:06:04.847Z,-0.68
2022-11-20T22:08:06.421Z,-0.68
2022-11-20T22:10:08.223Z,-0.68
2022-11-20T22:12:09.673Z,-0.69
2022-11-20T22:14:20.450Z,-0.72
2022-11-20T22:16:22.947Z,-0.72
2022-11-20T22:18:24.383Z,-0.72
2022-11-20T22:20:25.942Z,-0.71
2022-11-20T22:22:27.393Z,-0.70
2022-11-20T22:24:28.850Z,-0.70
2022-11-20T22:26:39.659Z,-0.73
2022-11-20T22:28:42.806Z,-0.75
2022-11-20T22:30:44.237Z,-0.76
2022-11-20T22:32:45.672Z,-0.75
2022-11-20T22:34:47.142Z,-0.78
2022-11-20T22:36:48.642Z,-0.81
2022-11-20T22:38:50.246Z,-0.81
2022-11-20T22:40:51.693Z,-0.80
2022-11-20T22:42:53.148Z,-0.79
2022-11-20T22:44:54.599Z,-0.77
2022-11-20T22:46:56.065Z,-0.76
2022-11-20T22:49:02.806Z,-0.77
2022-11-20T22:51:06.665Z,-0.78
2022-11-20T22:53:08.660Z,-0.79
2022-11-20T22:55:13.622Z,-0.80
2022-11-20T22:57:17.711Z,-0.82
2022-11-20T22:59:19.209Z,-0.82
2022-11-20T23:01:22.164Z,-0.81
2022-11-20T23:03:23.686Z,-0.83
2022-11-20T23:05:25.175Z,-0.84
2022-11-20T23:07:26.696Z,-0.85
2022-11-20T23:09:28.563Z,-0.87
2022-11-20T23:11:31.975Z,-0.87
2022-11-20T23:13:34.806Z,-0.90
2022-11-20T23:15:36.334Z,-0.91
2022-11-20T23:17:37.779Z,-0.92
2022-11-20T23:19:39.247Z,-0.95
2022-11-20T23:21:42.090Z,-0.97
2022-11-20T23:23:47.877Z,-1.00
2022-11-20T23:25:49.335Z,-1.03
2022-11-20T23:27:50.765Z,-1.04
2022-11-20T23:29:52.206Z,-1.07
2022-11-20T23:31:53.712Z,-1.10
2022-11-20T23:33:55.444Z,-1.12
2022-11-20T23:35:57.226Z,-1.14
2022-11-20T23:37:58.687Z,-1.18
2022-11-20T23:40:00.130Z,-1.21
2022-11-20T23:42:01.576Z,-1.23
2022-11-20T23:44:03.047Z,-1.24
2022-11-20T23:46:05.248Z,-1.25
2022-11-20T23:48:07.185Z,-1.27
2022-11-20T23:50:08.729Z,-1.28
2022-11-20T23:52:10.527Z,-1.29
2022-11-20T23:54:11.993Z,-1.31
2022-11-20T23:56:16.282Z,-1.33
2022-11-20T23:58:17.786Z,-1.35
